Time;durP1;ratioP1;P1;durP2;ratioP2;P2;SDS_P1;SDS_P2;PMS_P1;PMS_P2;Temp;Humidity;BMP_temperature;BMP_pressure;BME280_temperature;BME280_humidity;BME280_pressure;Samples;Min_cycle;Max_cycle;Signal;HPM_P1;HPM_P2
2023/01/21 00:00:38;;;;;;;15.10;10.73;;;;;;;-1.45;100.00;98518.72;5052967;28;20285;-79
2023/01/21 00:03:05;;;;;;;14.97;10.23;;;;;;;-1.44;100.00;98520.44;5053636;28;20225;-77
2023/01/21 00:05:31;;;;;;;14.33;9.87;;;;;;;-1.44;100.00;98517.84;5051276;28;20285;-78
2023/01/21 00:07:59;;;;;;;15.17;10.33;;;;;;;-1.45;100.00;98529.09;5051010;28;20235;-78
2023/01/21 00:10:26;;;;;;;13.37;10.37;;;;;;;-1.42;100.00;98523.88;5050355;28;20227;-76
2023/01/21 00:12:53;;;;;;;14.60;10.60;;;;;;;-1.41;100.00;98520.38;5051221;28;20657;-77
2023/01/21 00:15:19;;;;;;;14.77;10.23;;;;;;;-1.42;100.00;98524.72;5051151;28;20207;-79
2023/01/21 00:17:46;;;;;;;13.73;10.27;;;;;;;-1.35;100.00;98528.91;5050769;28;20602;-78
2023/01/21 00:20:12;;;;;;;14.27;10.90;;;;;;;-1.38;100.00;98531.56;5050078;28;20213;-78
2023/01/21 00:22:39;;;;;;;15.03;10.57;;;;;;;-1.37;100.00;98524.63;5050790;28;20212;-78
2023/01/21 00:25:08;;;;;;;17.30;11.80;;;;;;;-1.32;100.00;98523.69;5051076;28;20588;-78
2023/01/21 00:27:34;;;;;;;13.60;10.00;;;;;;;-1.32;100.00;98528.00;5050682;28;20245;-78
2023/01/21 00:30:01;;;;;;;14.73;11.07;;;;;;;-1.31;100.00;98532.31;5050545;28;20553;-78
2023/01/21 00:32:27;;;;;;;16.67;11.17;;;;;;;-1.28;100.00;98532.28;5050717;28;20223;-77
2023/01/21 00:34:54;;;;;;;17.13;11.60;;;;;;;-1.24;100.00;98533.94;5053998;28;20223;-78
2023/01/21 00:37:21;;;;;;;18.50;12.13;;;;;;;-1.28;100.00;98533.13;5054544;28;20254;-78
2023/01/21 00:39:47;;;;;;;17.33;11.10;;;;;;;-1.28;100.00;98545.22;5053925;28;20305;-78
2023/01/21 00:42:15;;;;;;;16.67;11.17;;;;;;;-1.28;100.00;98542.63;5054553;28;20683;-77
2023/01/21 00:44:41;;;;;;;13.47;10.13;;;;;;;-1.24;100.00;98544.31;5054540;28;20214;-77
2023/01/21 00:47:08;;;;;;;15.27;10.97;;;;;;;-1.22;100.00;98547.72;5054606;28;20236;-79
2023/01/21 00:49:34;;;;;;;16.43;11.57;;;;;;;-1.17;100.00;98545.91;5053600;28;20581;-78
2023/01/21 00:52:01;;;;;;;15.67;10.70;;;;;;;-1.25;100.00;98545.16;5054412;28;20294;-77
2023/01/21 00:54:30;;;;;;;15.17;11.17;;;;;;;-1.24;100.00;98541.72;5054562;28;20210;-78
2023/01/21 00:56:56;;;;;;;19.20;12.30;;;;;;;-1.30;100.00;98547.00;5053592;28;20235;-78
2023/01/21 00:59:26;;;;;;;18.67;12.27;;;;;;;-1.28;100.00;98547.81;5053641;28;20203;-78
2023/01/21 01:01:52;;;;;;;15.07;11.00;;;;;;;-1.33;100.00;98554.81;5054231;28;20246;-78
2023/01/21 01:04:19;;;;;;;17.03;11.53;;;;;;;-1.39;100.00;98554.91;5053652;28;20219;-78
2023/01/21 01:06:45;;;;;;;16.00;10.67;;;;;;;-1.39;100.00;98555.78;5054092;28;20227;-77
2023/01/21 01:09:12;;;;;;;17.83;11.27;;;;;;;-1.42;100.00;98552.38;5053164;28;20232;-78
2023/01/21 01:11:39;;;;;;;13.53;10.47;;;;;;;-1.43;100.00;98542.88;5054113;28;20204;-78
2023/01/21 01:14:06;;;;;;;15.33;11.70;;;;;;;-1.45;100.00;98552.41;5054105;28;20210;-78
2023/01/21 01:16:33;;;;;;;17.17;11.60;;;;;;;-1.42;100.00;98558.41;5053861;28;20231;-78
2023/01/21 01:19:00;;;;;;;14.53;10.93;;;;;;;-1.40;100.00;98563.56;5053299;28;20577;-79
2023/01/21 01:21:26;;;;;;;15.13;10.57;;;;;;;-1.38;100.00;98561.81;5054072;28;20233;-77
2023/01/21 01:23:53;;;;;;;17.43;10.97;;;;;;;-1.40;100.00;98561.84;5053813;28;20221;-78
2023/01/21 01:26:21;;;;;;;16.30;11.27;;;;;;;-1.43;100.00;98563.59;5053919;28;20218;-77
2023/01/21 01:28:48;;;;;;;17.10;10.63;;;;;;;-1.48;100.00;98565.44;5053173;28;20236;-77
2023/01/21 01:31:16;;;;;;;16.53;11.53;;;;;;;-1.51;100.00;98570.66;5053338;28;20210;-77
2023/01/21 01:33:44;;;;;;;15.97;10.93;;;;;;;-1.53;100.00;98569.81;5053670;28;20218;-77
2023/01/21 01:36:13;;;;;;;17.23;11.57;;;;;;;-1.55;100.00;98574.16;5053392;28;20678;-77
2023/01/21 01:38:40;;;;;;;15.77;11.13;;;;;;;-1.66;100.00;98581.25;5053436;28;20203;-78
2023/01/21 01:41:06;;;;;;;19.10;11.57;;;;;;;-1.73;100.00;98577.88;5053038;28;20586;-78
2023/01/21 01:43:56;;;;;;;15.70;10.97;;;;;;;-1.83;100.00;98588.38;5053507;28;20204;-78
2023/01/21 01:46:23;;;;;;;15.77;11.13;;;;;;;-2.00;100.00;98585.16;5052475;28;20235;-77
2023/01/21 01:48:55;;;;;;;19.00;12.33;;;;;;;-2.11;100.00;98582.72;5052875;28;20235;-77
2023/01/21 01:51:26;;;;;;;17.90;11.70;;;;;;;-2.15;100.00;98593.13;5053526;28;20216;-77
2023/01/21 01:53:53;;;;;;;16.60;11.77;;;;;;;-2.24;100.00;98595.81;5053263;28;20219;-78
2023/01/21 01:56:20;;;;;;;16.60;11.87;;;;;;;-2.34;100.00;98599.41;5052584;28;20217;-78
2023/01/21 01:58:47;;;;;;;18.57;11.00;;;;;;;-2.44;100.00;98601.19;5052268;28;20572;-79
2023/01/21 02:01:14;;;;;;;14.77;10.80;;;;;;;-2.53;100.00;98603.03;5053289;28;20212;-78
2023/01/21 02:03:48;;;;;;;16.73;10.93;;;;;;;-2.65;100.00;98608.31;5053169;28;20218;-77
2023/01/21 02:06:17;;;;;;;16.27;11.17;;;;;;;-2.71;100.00;98610.97;5053004;28;20213;-78
2023/01/21 02:08:46;;;;;;;15.83;10.40;;;;;;;-2.81;100.00;98612.78;5052667;28;20229;-79
2023/01/21 02:11:14;;;;;;;16.27;11.13;;;;;;;-2.82;100.00;98615.41;5053006;28;20639;-78
2023/01/21 02:13:44;;;;;;;18.43;11.60;;;;;;;-2.82;100.00;98621.41;5053099;28;20236;-78
2023/01/21 02:16:41;;;;;;;16.47;11.77;;;;;;;-2.92;100.00;98619.81;5052952;28;20209;-78
2023/01/21 02:19:40;;;;;;;14.60;10.60;;;;;;;-2.96;100.00;98625.88;5051983;28;20731;-78
2023/01/21 02:22:16;;;;;;;13.77;9.90;;;;;;;-3.07;100.00;98629.44;5052927;28;20221;-78
2023/01/21 02:25:06;;;;;;;16.87;11.40;;;;;;;-3.13;100.00;98634.63;5052800;28;20221;-78
2023/01/21 02:27:42;;;;;;;17.30;11.87;;;;;;;-3.15;100.00;98636.34;5052720;28;20609;-78
2023/01/21 02:30:48;;;;;;;16.73;11.97;;;;;;;-3.21;100.00;98631.22;5051713;28;20242;-78
2023/01/21 02:33:30;;;;;;;16.90;11.43;;;;;;;-3.27;100.00;98626.09;5052521;28;20219;-77
2023/01/21 02:36:09;;;;;;;21.27;13.20;;;;;;;-3.30;100.00;98632.16;5052469;28;20594;-77
2023/01/21 02:38:45;;;;;;;17.83;12.33;;;;;;;-3.35;100.00;98643.41;5052303;28;20223;-78
2023/01/21 02:41:21;;;;;;;22.60;12.43;;;;;;;-3.38;100.00;98648.56;5052236;28;20215;-78
2023/01/21 02:43:57;;;;;;;17.47;12.50;;;;;;;-3.45;100.00;98641.72;5052203;28;20690;-78
2023/01/21 02:46:31;;;;;;;20.33;11.63;;;;;;;-3.55;100.00;98648.69;5052334;28;20282;-77
2023/01/21 02:49:03;;;;;;;16.93;11.63;;;;;;;-3.54;100.00;98654.72;5051637;28;20229;-78
2023/01/21 02:51:30;;;;;;;20.50;13.17;;;;;;;-3.50;100.00;98648.66;5052484;28;20210;-78
2023/01/21 02:53:56;;;;;;;16.80;12.00;;;;;;;-3.48;100.00;98646.94;5052167;28;20209;-78
2023/01/21 02:56:26;;;;;;;19.07;12.03;;;;;;;-3.53;100.00;98646.09;5051759;28;20236;-78
2023/01/21 02:58:57;;;;;;;20.70;13.50;;;;;;;-3.55;100.00;98656.44;5051276;28;20212;-78
2023/01/21 03:01:32;;;;;;;19.60;12.40;;;;;;;-3.54;100.00;98649.56;5052172;28;20222;-77
2023/01/21 03:04:34;;;;;;;17.67;12.73;;;;;;;-3.55;100.00;98650.44;5052003;28;20209;-79
2023/01/21 03:07:07;;;;;;;19.80;12.97;;;;;;;-3.55;100.00;98653.84;5047961;28;20224;-78
2023/01/21 03:09:35;;;;;;;19.90;12.77;;;;;;;-3.51;100.00;98657.28;5051242;28;20240;-78
2023/01/21 03:12:18;;;;;;;21.30;12.63;;;;;;;-3.49;100.00;98666.72;5051697;28;20212;-78
2023/01/21 03:17:40;;;;;;;18.13;12.53;;;;;;;-3.54;100.00;98659.88;5052471;28;20717;-78
2023/01/21 03:20:12;;;;;;;19.97;12.03;;;;;;;-3.63;100.00;98659.91;5052483;28;20617;-78
2023/01/21 03:22:40;;;;;;;18.60;12.37;;;;;;;-3.67;100.00;98666.00;5052000;28;20208;-77
2023/01/21 03:25:08;;;;;;;18.03;11.67;;;;;;;-3.74;100.00;98664.31;5051566;28;20209;-77
2023/01/21 03:27:39;;;;;;;17.17;11.47;;;;;;;-3.81;100.00;98663.47;5051712;28;20239;-78
2023/01/21 03:30:11;;;;;;;17.80;12.47;;;;;;;-3.91;100.00;98666.09;5050630;28;20233;-79
2023/01/21 03:32:39;;;;;;;18.67;13.30;;;;;;;-3.95;100.00;98661.81;5051619;28;20217;-78
2023/01/21 03:35:07;;;;;;;19.47;12.77;;;;;;;-3.96;100.00;98668.72;5051609;28;20217;-78
2023/01/21 03:37:40;;;;;;;22.43;13.37;;;;;;;-3.97;100.00;98664.38;5051181;28;20248;-77
2023/01/21 03:40:17;;;;;;;19.43;12.80;;;;;;;-3.96;100.00;98673.00;5050477;28;20580;-78
2023/01/21 03:42:45;;;;;;;18.87;12.67;;;;;;;-3.90;100.00;98672.97;5051761;28;20210;-78
2023/01/21 03:45:13;;;;;;;16.80;11.50;;;;;;;-3.88;100.00;98678.97;5051463;28;20216;-78
2023/01/21 03:47:44;;;;;;;16.80;11.57;;;;;;;-3.88;100.00;98671.22;5051217;28;20228;-78
2023/01/21 03:50:16;;;;;;;16.07;11.80;;;;;;;-3.91;100.00;98671.25;5050555;28;20244;-79
2023/01/21 03:52:44;;;;;;;19.63;12.23;;;;;;;-3.95;100.00;98672.13;5051302;28;20207;-78
2023/01/21 03:55:13;;;;;;;18.57;11.90;;;;;;;-4.00;100.00;98676.44;5051074;28;20210;-78
2023/01/21 03:57:39;;;;;;;17.03;11.17;;;;;;;-4.03;100.00;98679.06;5051145;28;20226;-77
2023/01/21 04:00:07;;;;;;;18.60;12.13;;;;;;;-4.09;100.00;98671.31;5050298;28;20213;-78
2023/01/21 04:02:34;;;;;;;16.03;11.33;;;;;;;-4.12;100.00;98676.47;5051090;28;20210;-78
2023/01/21 04:05:00;;;;;;;19.50;11.97;;;;;;;-4.14;100.00;98683.38;5051243;28;20204;-77
2023/01/21 04:07:27;;;;;;;19.27;11.77;;;;;;;-4.15;100.00;98677.34;5050960;28;20252;-77
2023/01/21 04:09:54;;;;;;;17.10;12.00;;;;;;;-4.14;100.00;98678.22;5053604;28;20233;-78
2023/01/21 04:12:21;;;;;;;20.17;12.83;;;;;;;-4.03;100.00;98681.63;5055435;28;20205;-78
2023/01/21 04:14:47;;;;;;;17.97;12.00;;;;;;;-4.00;100.00;98686.78;5055196;28;20220;-78
2023/01/21 04:17:14;;;;;;;14.07;10.73;;;;;;;-4.04;100.00;98692.81;5054972;28;20247;-78
2023/01/21 04:19:40;;;;;;;18.33;12.43;;;;;;;-4.01;100.00;98695.38;5054234;28;20211;-78
2023/01/21 04:22:07;;;;;;;18.77;12.20;;;;;;;-4.02;100.00;98691.09;5054974;28;20211;-78
2023/01/21 04:24:33;;;;;;;16.93;12.47;;;;;;;-3.97;100.00;98692.78;5055227;28;20215;-76
2023/01/21 04:27:01;;;;;;;17.23;11.83;;;;;;;-3.92;100.00;98697.94;5054745;28;20232;-78
2023/01/21 04:29:28;;;;;;;18.20;12.20;;;;;;;-3.96;100.00;98694.53;5054118;28;20238;-76
2023/01/21 04:31:54;;;;;;;16.87;11.83;;;;;;;-4.00;100.00;98697.09;5054907;28;20216;-78
2023/01/21 04:34:21;;;;;;;19.73;13.10;;;;;;;-4.00;100.00;98697.09;5054668;28;20206;-78
2023/01/21 04:36:47;;;;;;;16.17;11.73;;;;;;;-3.98;100.00;98685.91;5068477;22;20237;-80
2023/01/21 04:39:14;;;;;;;18.03;12.30;;;;;;;-3.99;100.00;98688.47;5053423;28;20208;-80
2023/01/21 04:41:40;;;;;;;17.47;11.93;;;;;;;-4.01;100.00;98696.25;5054436;28;20217;-80
2023/01/21 04:44:08;;;;;;;18.27;12.07;;;;;;;-3.99;100.00;98694.50;5054323;28;20206;-79
2023/01/21 04:46:34;;;;;;;20.90;12.53;;;;;;;-3.96;100.00;98698.81;5054233;28;20579;-80
2023/01/21 04:49:01;;;;;;;18.40;12.70;;;;;;;-3.93;100.00;98707.41;5053334;28;20624;-80
2023/01/21 04:51:27;;;;;;;17.57;11.73;;;;;;;-3.94;100.00;98709.97;5054202;28;20231;-80
2023/01/21 04:53:54;;;;;;;18.23;12.73;;;;;;;-4.02;100.00;98701.41;5054233;28;20208;-80
2023/01/21 04:56:20;;;;;;;17.20;11.97;;;;;;;-4.10;100.00;98696.25;5054134;28;20205;-79
2023/01/21 04:58:47;;;;;;;19.77;13.17;;;;;;;-4.03;100.00;98707.44;5053609;28;20230;-80
2023/01/21 05:01:15;;;;;;;20.20;12.30;;;;;;;-4.03;100.00;98704.88;5053644;28;20233;-80
2023/01/21 05:03:41;;;;;;;20.13;13.00;;;;;;;-4.06;100.00;98707.44;5054033;28;20206;-79
2023/01/21 05:06:08;;;;;;;19.70;13.40;;;;;;;-3.98;100.00;98709.13;5053845;28;20213;-79
2023/01/21 05:08:34;;;;;;;17.93;11.97;;;;;;;-3.97;100.00;98708.25;5053740;28;20352;-79
2023/01/21 05:11:01;;;;;;;17.93;11.90;;;;;;;-4.04;100.00;98706.56;5053012;28;20676;-79
2023/01/21 05:13:27;;;;;;;21.57;13.23;;;;;;;-4.07;100.00;98705.72;5053696;28;20660;-81
2023/01/21 05:15:53;;;;;;;20.80;13.07;;;;;;;-4.03;100.00;98704.88;5053729;28;20231;-81
2023/01/21 05:18:21;;;;;;;19.87;13.07;;;;;;;-4.00;100.00;98710.00;5053584;28;20237;-81
2023/01/21 05:20:48;;;;;;;19.40;12.47;;;;;;;-3.94;100.00;98715.16;5052836;28;20239;-79
2023/01/21 05:23:14;;;;;;;20.10;12.80;;;;;;;-3.96;100.00;98715.19;5053953;28;20215;-79
2023/01/21 05:25:41;;;;;;;17.40;12.20;;;;;;;-4.08;100.00;98715.22;5053756;28;20216;-81
2023/01/21 05:28:08;;;;;;;17.90;12.90;;;;;;;-4.03;100.00;98717.78;5053445;28;20233;-79
2023/01/21 05:30:34;;;;;;;20.27;12.87;;;;;;;-4.09;100.00;98728.09;5052794;28;20293;-79
2023/01/21 05:33:00;;;;;;;17.23;11.70;;;;;;;-4.13;100.00;98726.38;5053325;28;20217;-79
2023/01/21 05:35:28;;;;;;;18.70;11.90;;;;;;;-4.18;100.00;98734.16;5053260;28;20206;-79
2023/01/21 05:37:55;;;;;;;21.10;13.00;;;;;;;-4.12;100.00;98738.44;5053155;28;20242;-79
2023/01/21 05:40:22;;;;;;;22.50;13.93;;;;;;;-4.02;100.00;98740.13;5052620;28;20239;-79
2023/01/21 05:42:48;;;;;;;21.13;13.13;;;;;;;-3.99;100.00;98734.94;5053259;28;20228;-80
2023/01/21 05:45:15;;;;;;;20.50;13.00;;;;;;;-4.05;100.00;98745.28;5053300;28;20231;-80
2023/01/21 05:47:42;;;;;;;23.27;14.30;;;;;;;-4.04;100.00;98741.88;5052999;28;20742;-81
2023/01/21 05:50:10;;;;;;;22.17;13.83;;;;;;;-4.09;100.00;98744.44;5052517;28;20581;-81
2023/01/21 05:52:38;;;;;;;26.43;15.93;;;;;;;-4.01;100.00;98747.00;5052731;28;20206;-79
2023/01/21 05:55:05;;;;;;;25.47;15.90;;;;;;;-4.04;100.00;98747.03;5052889;28;20206;-79
2023/01/21 05:57:32;;;;;;;25.07;16.47;;;;;;;-4.01;100.00;98754.75;5052942;28;20265;-81
2023/01/21 05:59:59;;;;;;;27.57;16.87;;;;;;;-3.91;100.00;98748.72;5052052;28;20228;-79
2023/01/21 06:02:25;;;;;;;25.60;16.23;;;;;;;-3.98;100.00;98753.03;5053162;28;20212;-81
2023/01/21 06:04:52;;;;;;;28.10;17.97;;;;;;;-3.99;100.00;98758.19;5052708;28;20206;-79
2023/01/21 06:07:18;;;;;;;25.90;16.70;;;;;;;-3.98;100.00;98762.50;5052786;28;20228;-79
2023/01/21 06:09:46;;;;;;;33.50;19.03;;;;;;;-4.01;100.00;98759.91;5051984;28;20224;-80
2023/01/21 06:12:12;;;;;;;30.53;18.27;;;;;;;-3.97;100.00;98761.63;5052762;28;20239;-80
2023/01/21 06:14:39;;;;;;;29.87;18.93;;;;;;;-4.07;100.00;98772.84;5052702;28;20213;-80
2023/01/21 06:17:05;;;;;;;31.50;18.53;;;;;;;-4.09;100.00;98771.97;5052525;28;20228;-80
2023/01/21 06:19:32;;;;;;;32.10;17.53;;;;;;;-4.08;100.00;98771.13;5051837;28;20241;-80
2023/01/21 06:21:58;;;;;;;36.30;18.77;;;;;;;-4.15;100.00;98777.16;5052604;28;20216;-80
2023/01/21 06:24:25;;;;;;;36.20;19.73;;;;;;;-4.15;100.00;98779.75;5052412;28;20219;-80
2023/01/21 06:26:53;;;;;;;33.53;19.23;;;;;;;-4.15;100.00;98779.75;5052390;28;20241;-80
2023/01/21 06:29:19;;;;;;;34.07;18.83;;;;;;;-4.12;100.00;98780.59;5051932;28;20214;-80
2023/01/21 06:31:46;;;;;;;37.20;19.70;;;;;;;-4.05;100.00;98786.59;5051604;28;20209;-80
2023/01/21 06:34:12;;;;;;;35.50;19.93;;;;;;;-4.06;100.00;98790.91;5052169;28;20714;-80
2023/01/21 06:36:41;;;;;;;33.73;20.60;;;;;;;-4.05;100.00;98791.75;5052103;28;20211;-81
2023/01/21 06:39:09;;;;;;;34.50;19.70;;;;;;;-3.99;100.00;98797.78;5051418;28;20737;-80
2023/01/21 06:41:35;;;;;;;37.47;21.37;;;;;;;-4.08;100.00;98792.63;5052069;28;20253;-80
2023/01/21 06:44:04;;;;;;;36.97;22.27;;;;;;;-4.10;100.00;98798.66;5052244;28;20210;-80
2023/01/21 06:46:30;;;;;;;42.93;21.43;;;;;;;-4.04;100.00;98806.41;5051999;28;20549;-80
2023/01/21 06:48:57;;;;;;;39.07;21.67;;;;;;;-4.04;100.00;98798.66;5051430;28;20205;-80
2023/01/21 06:51:23;;;;;;;45.10;21.83;;;;;;;-4.03;100.00;98805.53;5051775;28;20666;-80
2023/01/21 06:53:50;;;;;;;36.60;19.63;;;;;;;-4.07;100.00;98814.13;5051922;28;20241;-80
2023/01/21 06:56:16;;;;;;;35.90;20.53;;;;;;;-4.02;100.00;98812.41;5052035;28;20214;-80
2023/01/21 06:58:43;;;;;;;37.30;20.77;;;;;;;-3.97;100.00;98818.44;5051733;28;20248;-80
2023/01/21 07:01:11;;;;;;;37.20;20.17;;;;;;;-4.00;100.00;98821.00;5051258;28;20224;-80
2023/01/21 07:03:37;;;;;;;38.03;21.30;;;;;;;-3.91;100.00;98826.16;5051903;28;20594;-80
2023/01/21 07:06:04;;;;;;;32.40;18.60;;;;;;;-3.97;100.00;98826.19;5051712;28;20253;-80
2023/01/21 07:08:30;;;;;;;34.63;19.40;;;;;;;-4.00;100.00;98836.50;5051511;28;20233;-80
2023/01/21 07:10:57;;;;;;;36.30;19.00;;;;;;;-4.05;100.00;98836.50;5050744;28;20208;-80
2023/01/21 07:13:23;;;;;;;36.80;19.93;;;;;;;-3.94;100.00;98846.81;5051795;28;20212;-80
2023/01/21 07:15:50;;;;;;;33.27;19.90;;;;;;;-3.85;100.00;98846.81;5051301;28;20204;-80
2023/01/21 07:18:17;;;;;;;41.73;22.23;;;;;;;-3.80;100.00;98856.25;5051401;28;20231;-80
2023/01/21 07:20:44;;;;;;;37.20;21.20;;;;;;;-3.65;100.00;98855.38;5050478;28;20226;-80
2023/01/21 07:23:10;;;;;;;34.37;18.77;;;;;;;-3.59;100.00;98868.28;5051397;28;20215;-80
2023/01/21 07:25:37;;;;;;;32.10;18.10;;;;;;;-3.59;100.00;98870.88;5051747;28;20220;-80
2023/01/21 07:28:03;;;;;;;37.83;20.13;;;;;;;-3.56;100.00;98878.63;5051314;28;20224;-80
2023/01/21 07:30:30;;;;;;;37.73;19.60;;;;;;;-3.48;100.00;98879.47;5050462;28;20200;-80
2023/01/21 07:32:56;;;;;;;38.10;20.00;;;;;;;-3.39;100.00;98882.00;5051286;28;20209;-80
2023/01/21 07:35:24;;;;;;;38.23;20.03;;;;;;;-3.25;100.00;98878.53;5051207;28;20210;-80
2023/01/21 07:37:51;;;;;;;33.30;17.73;;;;;;;-3.17;100.00;98881.94;5050816;28;20256;-80
2023/01/21 07:40:18;;;;;;;35.73;19.83;;;;;;;-3.14;100.00;98883.63;5050517;28;20237;-80
2023/01/21 07:42:50;;;;;;;33.77;18.13;;;;;;;-3.17;100.00;98887.09;5050302;28;20216;-80
2023/01/21 07:45:16;;;;;;;32.63;18.50;;;;;;;-3.10;100.00;98880.19;5051158;28;20214;-80
2023/01/21 07:47:43;;;;;;;31.63;17.20;;;;;;;-3.04;100.00;98882.75;5050963;28;20238;-80
2023/01/21 07:50:10;;;;;;;32.47;18.07;;;;;;;-2.96;100.00;98881.84;5050112;28;20217;-80
2023/01/21 07:52:38;;;;;;;26.83;15.57;;;;;;;-2.97;100.00;98879.28;5050801;28;20752;-80
2023/01/21 07:55:06;;;;;;;28.83;16.47;;;;;;;-3.00;100.00;98879.31;5051199;28;20210;-80
2023/01/21 07:57:33;;;;;;;31.47;17.40;;;;;;;-3.02;100.00;98886.19;5050921;28;20238;-80
2023/01/21 07:59:59;;;;;;;30.23;17.40;;;;;;;-2.94;100.00;98885.28;5050225;28;20258;-80
2023/01/21 08:02:26;;;;;;;32.37;17.67;;;;;;;-2.91;100.00;98879.25;5050878;28;20225;-80
2023/01/21 08:04:52;;;;;;;31.47;17.93;;;;;;;-2.86;100.00;98890.44;5050688;28;20699;-82
2023/01/21 08:07:19;;;;;;;33.73;17.80;;;;;;;-2.80;100.00;98882.66;5050928;28;20241;-81
2023/01/21 08:09:46;;;;;;;31.83;16.23;;;;;;;-2.68;100.00;98885.19;5050455;28;20216;-83
2023/01/21 08:12:13;;;;;;;30.47;16.70;;;;;;;-2.65;100.00;98888.59;5050746;28;20684;-80
2023/01/21 08:14:39;;;;;;;28.03;16.07;;;;;;;-2.53;100.00;98887.66;5050850;28;20705;-81
2023/01/21 08:17:08;;;;;;;34.33;16.70;;;;;;;-2.60;100.00;98892.03;5050633;28;20311;-79
2023/01/21 08:19:34;;;;;;;28.43;15.87;;;;;;;-2.52;100.00;98889.41;5049864;28;20206;-84
2023/01/21 08:22:01;;;;;;;29.43;16.63;;;;;;;-2.49;100.00;98885.06;5050622;28;20238;-84
2023/01/21 08:24:27;;;;;;;27.60;16.40;;;;;;;-2.46;100.00;98884.19;5050955;28;20218;-82
2023/01/21 08:26:58;;;;;;;29.77;15.43;;;;;;;-2.35;100.00;98887.56;5050618;28;20276;-84
2023/01/21 08:29:25;;;;;;;26.27;15.60;;;;;;;-2.35;100.00;98878.06;5050075;28;20209;-85
2023/01/21 08:31:52;;;;;;;25.30;15.00;;;;;;;-2.34;100.00;98881.53;5050562;28;20214;-82
2023/01/21 08:34:19;;;;;;;24.60;14.57;;;;;;;-2.39;100.00;98880.69;5050616;28;20219;-82
2023/01/21 08:36:45;;;;;;;28.37;15.17;;;;;;;-2.41;100.00;98877.22;5050555;28;20207;-82
2023/01/21 08:39:14;;;;;;;26.97;15.10;;;;;;;-2.32;100.00;98879.78;5049946;28;20207;-81
2023/01/21 08:41:40;;;;;;;29.97;15.23;;;;;;;-2.31;100.00;98878.91;5050479;28;20231;-82
2023/01/21 08:44:08;;;;;;;24.47;15.33;;;;;;;-2.27;100.00;98880.63;5050511;28;20361;-77
2023/01/21 08:46:35;;;;;;;21.50;13.50;;;;;;;-2.20;100.00;98875.34;5048971;28;20214;-82
2023/01/21 08:49:01;;;;;;;25.07;14.30;;;;;;;-2.15;100.00;98885.72;5047207;28;20211;-80
2023/01/21 08:51:28;;;;;;;25.37;14.67;;;;;;;-2.16;100.00;98883.97;5049468;28;20217;-80
2023/01/21 08:53:55;;;;;;;24.80;14.90;;;;;;;-2.06;100.00;98880.44;5049418;28;20214;-80
2023/01/21 08:56:21;;;;;;;27.10;14.83;;;;;;;-2.07;100.00;98878.72;5049143;28;20208;-80
2023/01/21 08:58:48;;;;;;;24.33;14.00;;;;;;;-1.93;100.00;98888.09;5044218;28;20227;-80
2023/01/21 09:01:15;;;;;;;23.27;14.23;;;;;;;-1.91;100.00;98875.16;5052840;28;20242;-80
2023/01/21 09:03:43;;;;;;;27.03;14.87;;;;;;;-1.83;100.00;98883.72;5052250;28;20210;-80
2023/01/21 09:06:11;;;;;;;26.77;14.47;;;;;;;-1.83;100.00;98881.97;5052816;28;20218;-80
2023/01/21 09:08:38;;;;;;;23.27;13.70;;;;;;;-1.66;100.00;98872.31;5052507;28;20710;-82
2023/01/21 09:11:05;;;;;;;23.40;13.77;;;;;;;-1.67;100.00;98873.19;5053332;28;20252;-82
2023/01/21 09:13:35;;;;;;;22.97;13.67;;;;;;;-1.62;100.00;98867.94;5053627;28;20214;-82
2023/01/21 09:16:03;;;;;;;28.13;13.90;;;;;;;-1.64;100.00;98869.72;5053839;28;20578;-82
2023/01/21 09:18:31;;;;;;;24.67;14.03;;;;;;;-1.54;100.00;98866.16;5053805;28;20235;-87
2023/01/21 09:21:00;;;;;;;23.90;13.87;;;;;;;-1.38;100.00;98865.13;5052836;28;20238;-85
2023/01/21 09:23:27;;;;;;;21.73;12.53;;;;;;;-1.46;100.00;98864.34;5053678;28;20210;-84
2023/01/21 09:26:00;;;;;;;25.33;13.97;;;;;;;-1.51;100.00;98866.13;5053642;28;20240;-85
2023/01/21 09:28:26;;;;;;;26.03;14.30;;;;;;;-1.46;100.00;98874.72;5052687;28;20610;-85
2023/01/21 09:30:58;;;;;;;26.37;13.90;;;;;;;-1.35;100.00;98872.88;5050862;28;20214;-86
2023/01/21 09:33:26;;;;;;;26.33;13.57;;;;;;;-1.33;100.00;98876.31;5051573;28;20215;-85
2023/01/21 09:35:54;;;;;;;20.60;12.87;;;;;;;-1.23;100.00;98885.72;5051990;28;20219;-87
2023/01/21 09:38:24;;;;;;;23.67;12.63;;;;;;;-1.19;100.00;98884.78;5051835;28;20247;-87
2023/01/21 09:40:52;;;;;;;21.17;11.90;;;;;;;-1.24;100.00;98879.66;5052269;28;20281;-86
2023/01/21 09:43:23;;;;;;;26.13;13.53;;;;;;;-1.13;100.00;98887.31;5051254;28;20230;-85
2023/01/21 09:45:53;;;;;;;22.87;13.03;;;;;;;-1.12;100.00;98887.28;5051686;28;20213;-87
2023/01/21 09:48:28;;;;;;;22.30;13.67;;;;;;;-1.13;100.00;98892.50;5051872;28;20227;-87
2023/01/21 09:50:58;;;;;;;22.07;13.83;;;;;;;-1.13;100.00;98892.50;5050907;28;20210;-86
2023/01/21 09:53:30;;;;;;;21.43;12.47;;;;;;;-0.98;100.00;98890.59;5051672;28;20301;-86
2023/01/21 09:56:00;;;;;;;26.33;12.97;;;;;;;-1.07;100.00;98890.69;5051860;28;20223;-87
2023/01/21 09:58:34;;;;;;;26.07;13.70;;;;;;;-1.00;100.00;98891.50;5051681;28;20227;-87
2023/01/21 10:01:08;;;;;;;27.57;13.77;;;;;;;-0.91;100.00;98896.56;5049887;28;20233;-87
2023/01/21 10:03:43;;;;;;;21.97;12.47;;;;;;;-0.99;100.00;98895.81;5048629;28;20244;-87
2023/01/21 10:06:28;;;;;;;19.77;11.63;;;;;;;-0.94;100.00;98891.41;5048842;28;20801;-87
2023/01/21 10:09:20;;;;;;;21.00;11.90;;;;;;;-0.84;100.00;98887.81;5048310;28;20215;-88
2023/01/21 10:12:01;;;;;;;22.53;13.30;;;;;;;-0.72;100.00;98887.69;5048651;28;20215;-88
2023/01/21 10:15:01;;;;;;;25.53;13.37;;;;;;;-0.72;100.00;98882.47;5049075;28;20215;-87
2023/01/21 10:17:41;;;;;;;24.17;13.83;;;;;;;-0.76;100.00;98886.84;5049665;28;20237;-88
2023/01/21 10:20:16;;;;;;;21.33;13.07;;;;;;;-0.68;100.00;98881.56;5048818;28;20688;-87
2023/01/21 10:22:49;;;;;;;19.43;12.47;;;;;;;-0.73;100.00;98881.66;5048655;28;20234;-87
2023/01/21 10:25:22;;;;;;;23.57;12.63;;;;;;;-0.68;100.00;98886.78;5049659;28;20222;-87
2023/01/21 10:27:49;;;;;;;20.17;12.90;;;;;;;-0.54;100.00;98887.44;5049850;28;20250;-87
2023/01/21 10:30:23;;;;;;;22.07;12.73;;;;;;;-0.57;100.00;98887.50;5048499;28;20215;-87
2023/01/21 10:32:52;;;;;;;23.53;13.23;;;;;;;-0.55;100.00;98886.56;5049148;28;20217;-82
2023/01/21 10:35:30;;;;;;;24.37;13.30;;;;;;;-0.40;100.00;98885.50;5050764;28;20212;-85
2023/01/21 10:38:05;;;;;;;22.33;13.13;;;;;;;-0.48;100.00;98884.75;5063976;22;20578;-81
2023/01/21 10:40:43;;;;;;;19.40;12.10;;;;;;;-0.42;100.00;98890.75;5050896;28;20222;-80
2023/01/21 10:43:17;;;;;;;23.70;13.70;;;;;;;-0.42;100.00;98882.06;5051608;28;20233;-80
2023/01/21 10:45:49;;;;;;;19.47;13.10;;;;;;;-0.40;100.00;98890.69;5058796;28;20219;-80
2023/01/21 10:48:23;;;;;;;21.73;13.53;;;;;;;-0.37;100.00;98880.28;5051948;28;20253;-79
2023/01/21 10:50:56;;;;;;;22.13;13.33;;;;;;;-0.23;100.00;98889.59;5050159;28;20558;-80
2023/01/21 10:53:31;;;;;;;27.27;14.07;;;;;;;-0.22;100.00;98876.56;5051831;28;20457;-79
2023/01/21 10:56:11;;;;;;;21.53;12.80;;;;;;;-0.23;100.00;98870.53;5051577;28;20203;-80
2023/01/21 10:58:42;;;;;;;22.20;13.47;;;;;;;-0.26;100.00;98878.38;5051898;28;20775;-79
2023/01/21 11:01:17;;;;;;;18.80;12.57;;;;;;;-0.28;100.00;98871.44;5055174;28;20226;-79
2023/01/21 11:03:47;;;;;;;22.70;12.30;;;;;;;-0.38;100.00;98868.19;5051583;28;20677;-79
2023/01/21 11:06:17;;;;;;;20.13;11.53;;;;;;;-0.29;100.00;98871.50;5050414;28;20226;-79
2023/01/21 11:08:48;;;;;;;22.10;12.53;;;;;;;-0.19;100.00;98861.81;5051383;28;20232;-80
2023/01/21 11:11:20;;;;;;;20.40;12.83;;;;;;;-0.18;100.00;98858.34;5051788;28;20191;-80
2023/01/21 11:13:46;;;;;;;17.80;10.70;;;;;;;-0.25;100.00;98857.56;5050832;28;20217;-80
2023/01/21 11:16:13;;;;;;;18.67;11.47;;;;;;;-0.33;100.00;98863.78;5051091;28;20206;-80
2023/01/21 11:18:41;;;;;;;18.87;10.93;;;;;;;-0.24;99.28;98858.44;5050645;28;20230;-80
2023/01/21 11:21:17;;;;;;;15.30;10.57;;;;;;;-0.22;98.92;98859.25;5049876;28;20231;-80